Time;durP1;ratioP1;P1;durP2;ratioP2;P2;SDS_P1;SDS_P2;PMS_P1;PMS_P2;Temp;Humidity;BMP_temperature;BMP_pressure;BME280_temperature;BME280_humidity;BME280_pressure;Samples;Min_cycle;Max_cycle;Signal;HPM_P1;HPM_P2
2023/08/17 00:04:10;;;;;;;12.75;11.63;;;;;;;;;;10090552;28;20174;-70
2023/08/17 00:09:03;;;;;;;13.05;10.70;;;;;;;;;;10110379;28;20106;-69
2023/08/17 00:13:55;;;;;;;11.10;10.13;;;;;;;;;;10122556;28;20045;-69
2023/08/17 00:18:48;;;;;;;12.55;11.25;;;;;;;;;;10098112;28;20045;-68
2023/08/17 00:23:40;;;;;;;13.57;12.18;;;;;;;;;;10103249;28;20383;-69
2023/08/17 00:28:32;;;;;;;14.57;13.20;;;;;;;;;;10103622;28;20131;-69
2023/08/17 00:33:24;;;;;;;13.40;12.20;;;;;;;;;;10068875;28;20050;-70
2023/08/17 00:38:16;;;;;;;12.73;11.73;;;;;;;;;;10082443;28;20116;-69
2023/08/17 00:43:08;;;;;;;12.32;11.10;;;;;;;;;;10100687;28;20102;-69
2023/08/17 00:48:00;;;;;;;13.23;11.88;;;;;;;;;;10101347;28;20049;-69
2023/08/17 00:52:53;;;;;;;12.32;11.23;;;;;;;;;;10084568;28;20037;-70
2023/08/17 00:57:45;;;;;;;12.25;11.00;;;;;;;;;;10076614;28;20075;-70
2023/08/17 01:02:36;;;;;;;12.52;11.43;;;;;;;;;;10081457;28;20045;-68
2023/08/17 01:07:28;;;;;;;11.98;11.07;;;;;;;;;;10098352;28;20049;-70
2023/08/17 01:12:52;;;;;;;12.20;11.05;;;;;;;;;;10078746;28;20045;-68
2023/08/17 01:18:03;;;;;;;12.20;11.00;;;;;;;;;;10082217;28;20045;-68
2023/08/17 01:23:04;;;;;;;10.95;10.05;;;;;;;;;;10099510;28;20362;-70
2023/08/17 01:27:58;;;;;;;11.77;10.60;;;;;;;;;;10097525;28;20103;-67
2023/08/17 01:32:55;;;;;;;13.05;11.77;;;;;;;;;;10080409;28;20048;-68
2023/08/17 01:37:50;;;;;;;12.80;11.70;;;;;;;;;;10101445;28;20221;-66
2023/08/17 01:42:43;;;;;;;12.50;11.43;;;;;;;;;;10082591;28;20057;-69
2023/08/17 01:47:35;;;;;;;12.15;11.25;;;;;;;;;;10099074;28;20583;-70
2023/08/17 01:52:28;;;;;;;13.82;12.52;;;;;;;;;;10101609;28;20043;-67
2023/08/17 01:57:20;;;;;;;13.48;12.35;;;;;;;;;;10065198;28;20045;-69
2023/08/17 02:02:14;;;;;;;14.93;13.73;;;;;;;;;;10084315;28;20136;-69
2023/08/17 02:07:06;;;;;;;14.43;12.95;;;;;;;;;;10099328;28;20045;-67
2023/08/17 02:11:58;;;;;;;14.20;12.88;;;;;;;;;;10080056;28;20080;-67
2023/08/17 02:16:50;;;;;;;17.50;15.90;;;;;;;;;;10082689;28;20052;-68
2023/08/17 02:21:42;;;;;;;16.27;14.80;;;;;;;;;;10098488;28;20533;-67
2023/08/17 02:26:34;;;;;;;14.88;13.70;;;;;;;;;;10082771;28;20041;-70
2023/08/17 02:31:26;;;;;;;13.35;12.07;;;;;;;;;;10102577;28;20041;-70
2023/08/17 02:36:21;;;;;;;12.13;11.23;;;;;;;;;;10080241;28;20088;-69
2023/08/17 02:41:13;;;;;;;13.13;11.80;;;;;;;;;;10098997;28;20044;-72
2023/08/17 02:46:07;;;;;;;13.40;12.10;;;;;;;;;;10082006;28;20091;-69
2023/08/17 02:51:01;;;;;;;13.55;12.23;;;;;;;;;;10080582;28;20045;-70
2023/08/17 02:55:53;;;;;;;16.05;14.57;;;;;;;;;;10099821;28;20040;-69
2023/08/17 03:00:45;;;;;;;14.65;13.45;;;;;;;;;;10106150;28;20079;-69
2023/08/17 03:05:38;;;;;;;15.70;14.20;;;;;;;;;;10089250;28;20055;-68
2023/08/17 03:10:31;;;;;;;14.38;13.07;;;;;;;;;;10105907;28;20100;-70
2023/08/17 03:15:23;;;;;;;15.43;14.05;;;;;;;;;;10103973;28;20383;-70
2023/08/17 03:20:16;;;;;;;14.25;13.15;;;;;;;;;;10088010;28;20049;-69
2023/08/17 03:25:08;;;;;;;15.13;13.00;;;;;;;;;;10087862;28;20048;-70
2023/08/17 03:30:01;;;;;;;15.25;12.70;;;;;;;;;;10120534;28;20040;-69
2023/08/17 03:34:54;;;;;;;12.90;11.90;;;;;;;;;;10072569;28;20085;-69
2023/08/17 03:39:46;;;;;;;13.48;12.27;;;;;;;;;;10086549;28;20041;-70
2023/08/17 03:44:38;;;;;;;15.00;12.65;;;;;;;;;;10087288;28;20045;-70
2023/08/17 03:49:30;;;;;;;13.25;12.18;;;;;;;;;;10107103;28;20055;-70
2023/08/17 03:54:22;;;;;;;14.75;13.23;;;;;;;;;;10088082;28;20045;-70
2023/08/17 03:59:14;;;;;;;13.05;12.05;;;;;;;;;;10105077;28;20053;-70
2023/08/17 04:04:06;;;;;;;13.52;12.32;;;;;;;;;;10085993;28;20045;-69
2023/08/17 04:08:58;;;;;;;14.13;12.75;;;;;;;;;;10068190;28;20104;-70
2023/08/17 04:13:50;;;;;;;16.10;13.52;;;;;;;;;;10109053;28;20040;-69
2023/08/17 04:18:44;;;;;;;13.60;12.40;;;;;;;;;;10068466;28;21057;-69
2023/08/17 04:23:36;;;;;;;19.73;14.85;;;;;;;;;;10096880;28;20045;-68
2023/08/17 04:28:28;;;;;;;13.27;12.18;;;;;;;;;;10078803;28;20081;-69
2023/08/17 04:33:21;;;;;;;13.95;12.85;;;;;;;;;;10047918;28;20054;-70
2023/08/17 04:38:13;;;;;;;13.50;12.20;;;;;;;;;;10077993;28;20057;-70
2023/08/17 04:43:04;;;;;;;14.23;12.75;;;;;;;;;;10101737;28;20044;-70
2023/08/17 04:47:56;;;;;;;17.17;13.02;;;;;;;;;;10133446;28;20040;-69
2023/08/17 04:52:49;;;;;;;14.13;12.73;;;;;;;;;;10086207;28;20083;-70
2023/08/17 04:57:41;;;;;;;13.35;12.10;;;;;;;;;;10100925;28;20060;-70
2023/08/17 05:02:36;;;;;;;14.40;13.20;;;;;;;;;;10093236;28;20045;-69
2023/08/17 05:07:29;;;;;;;12.93;11.82;;;;;;;;;;10083479;28;20037;-69
2023/08/17 05:12:21;;;;;;;14.05;12.68;;;;;;;;;;10086444;28;20045;-69
2023/08/17 05:17:13;;;;;;;14.27;12.90;;;;;;;;;;10072250;28;20131;-70
2023/08/17 05:22:10;;;;;;;15.70;14.07;;;;;;;;;;10083416;28;20048;-70
2023/08/17 05:27:02;;;;;;;13.48;12.27;;;;;;;;;;10083055;28;20076;-69
2023/08/17 05:31:54;;;;;;;13.02;12.02;;;;;;;;;;10100551;28;20045;-69
2023/08/17 05:36:46;;;;;;;13.75;12.57;;;;;;;;;;10084027;28;20459;-70
2023/08/17 05:41:38;;;;;;;13.07;12.05;;;;;;;;;;10084774;28;20907;-70
2023/08/17 05:46:30;;;;;;;13.15;12.00;;;;;;;;;;10084571;28;20052;-70
2023/08/17 05:51:22;;;;;;;13.43;12.43;;;;;;;;;;10079305;28;20076;-68
2023/08/17 05:56:14;;;;;;;14.30;13.07;;;;;;;;;;10082054;28;20438;-70
2023/08/17 06:01:07;;;;;;;13.63;11.73;;;;;;;;;;10100495;28;20077;-69
2023/08/17 06:05:59;;;;;;;12.35;11.25;;;;;;;;;;10102731;28;20059;-71
2023/08/17 06:10:51;;;;;;;12.48;10.88;;;;;;;;;;10100896;28;20048;-68
2023/08/17 06:15:43;;;;;;;11.25;10.38;;;;;;;;;;10097041;28;20419;-75
2023/08/17 06:20:35;;;;;;;11.38;10.38;;;;;;;;;;10097994;28;20037;-75
2023/08/17 06:25:27;;;;;;;12.20;11.20;;;;;;;;;;10088962;28;20084;-74
2023/08/17 06:30:19;;;;;;;12.88;11.93;;;;;;;;;;10077066;28;20077;-75
2023/08/17 06:35:11;;;;;;;11.95;11.05;;;;;;;;;;10099751;28;20483;-75
2023/08/17 06:40:05;;;;;;;12.82;11.45;;;;;;;;;;10102355;28;20436;-75
2023/08/17 06:44:57;;;;;;;12.20;11.18;;;;;;;;;;10067875;28;20045;-75
2023/08/17 06:49:49;;;;;;;12.82;11.43;;;;;;;;;;10087341;28;20041;-75
2023/08/17 06:54:40;;;;;;;13.55;11.93;;;;;;;;;;10104330;28;20419;-75
2023/08/17 06:59:36;;;;;;;12.25;11.25;;;;;;;;;;10103066;28;20378;-75
2023/08/17 07:04:27;;;;;;;11.35;10.32;;;;;;;;;;10104833;28;20352;-75
2023/08/17 07:09:20;;;;;;;10.98;9.90;;;;;;;;;;10103364;28;20111;-73
2023/08/17 07:14:12;;;;;;;9.35;8.55;;;;;;;;;;10094345;28;20055;-75
2023/08/17 07:19:04;;;;;;;9.23;8.10;;;;;;;;;;10104327;28;20045;-74
2023/08/17 07:23:56;;;;;;;9.93;8.93;;;;;;;;;;10086630;28;20132;-72
2023/08/17 07:28:48;;;;;;;9.52;8.65;;;;;;;;;;10083538;28;20137;-72
2023/08/17 07:33:40;;;;;;;9.90;8.95;;;;;;;;;;10103784;28;20061;-73
2023/08/17 07:38:32;;;;;;;8.63;7.57;;;;;;;;;;10076383;28;20107;-69
2023/08/17 07:43:24;;;;;;;8.70;7.88;;;;;;;;;;10096194;28;20411;-72
2023/08/17 07:48:16;;;;;;;18.98;8.70;;;;;;;;;;10088096;28;20044;-74
2023/08/17 07:53:08;;;;;;;18.33;8.23;;;;;;;;;;10100621;28;20431;-74
2023/08/17 07:58:00;;;;;;;14.18;8.10;;;;;;;;;;10097967;28;20136;-72
2023/08/17 08:02:52;;;;;;;9.27;8.35;;;;;;;;;;10099355;28;20060;-74
2023/08/17 08:07:44;;;;;;;10.35;8.95;;;;;;;;;;10100852;28;20064;-73
2023/08/17 08:12:35;;;;;;;10.35;8.20;;;;;;;;;;10100100;28;20047;-73
2023/08/17 08:17:27;;;;;;;8.63;7.90;;;;;;;;;;10098246;28;20147;-74
2023/08/17 08:22:19;;;;;;;10.15;8.00;;;;;;;;;;10096902;28;20681;-72
2023/08/17 08:27:11;;;;;;;8.60;7.72;;;;;;;;;;10096922;28;20048;-73
2023/08/17 08:32:04;;;;;;;11.73;9.85;;;;;;;;;;10074769;28;20072;-74
2023/08/17 08:36:55;;;;;;;10.35;9.30;;;;;;;;;;10099616;28;20099;-75
2023/08/17 08:41:47;;;;;;;15.20;10.02;;;;;;;;;;10100886;28;20466;-77
2023/08/17 08:46:43;;;;;;;14.35;10.35;;;;;;;;;;10098132;28;20143;-77
2023/08/17 08:51:38;;;;;;;12.57;11.30;;;;;;;;;;10098221;28;20063;-78
2023/08/17 08:56:35;;;;;;;12.15;10.82;;;;;;;;;;10083135;28;20048;-76
2023/08/17 09:01:27;;;;;;;11.25;9.00;;;;;;;;;;10074757;28;20096;-77
2023/08/17 09:06:20;;;;;;;11.43;10.20;;;;;;;;;;10041284;28;20038;-77
2023/08/17 09:11:11;;;;;;;12.43;10.98;;;;;;;;;;10033052;28;20054;-76
2023/08/17 09:16:04;;;;;;;13.23;9.27;;;;;;;;;;10065846;28;20053;-78
2023/08/17 09:20:59;;;;;;;13.10;9.55;;;;;;;;;;10046058;28;20320;-75
2023/08/17 09:25:59;;;;;;;12.80;9.93;;;;;;;;;;10058178;28;20435;-78
2023/08/17 09:31:00;;;;;;;11.82;8.45;;;;;;;;;;10043416;28;20061;-78
2023/08/17 09:35:54;;;;;;;13.60;10.13;;;;;;;;;;10075445;28;20053;-73
2023/08/17 09:40:50;;;;;;;12.50;9.70;;;;;;;;;;10061337;28;20048;-75
2023/08/17 09:45:46;;;;;;;9.82;8.85;;;;;;;;;;10071172;28;20053;-77
2023/08/17 09:50:37;;;;;;;11.43;9.23;;;;;;;;;;10057685;28;20072;-76
2023/08/17 09:55:33;;;;;;;8.77;7.85;;;;;;;;;;10081593;28;20530;-77
2023/08/17 10:00:27;;;;;;;9.15;7.85;;;;;;;;;;10063060;28;20056;-77
2023/08/17 10:05:20;;;;;;;9.05;8.10;;;;;;;;;;10071693;28;20218;-77
2023/08/17 10:10:18;;;;;;;15.65;8.70;;;;;;;;;;10056778;28;20089;-78
2023/08/17 10:15:11;;;;;;;11.07;8.55;;;;;;;;;;10075562;28;20052;-76
2023/08/17 10:20:10;;;;;;;9.27;8.40;;;;;;;;;;10074511;28;20038;-77
2023/08/17 10:25:03;;;;;;;10.13;8.18;;;;;;;;;;10083342;28;20135;-76
2023/08/17 10:29:56;;;;;;;9.95;8.23;;;;;;;;;;10082448;28;20450;-77
2023/08/17 10:34:49;;;;;;;9.10;7.88;;;;;;;;;;10070873;28;20046;-78
2023/08/17 10:39:48;;;;;;;10.20;9.13;;;;;;;;;;10083859;28;20049;-77
2023/08/17 10:44:41;;;;;;;10.60;8.73;;;;;;;;;;10077222;28;20050;-78
2023/08/17 10:49:33;;;;;;;11.60;9.43;;;;;;;;;;10054584;28;20054;-78
2023/08/17 10:54:37;;;;;;;9.85;8.18;;;;;;;;;;10080692;28;20049;-77
2023/08/17 10:59:29;;;;;;;12.43;8.40;;;;;;;;;;10077462;28;20053;-76
2023/08/17 11:04:21;;;;;;;13.02;9.80;;;;;;;;;;10061818;28;20124;-75
2023/08/17 11:09:16;;;;;;;8.85;8.05;;;;;;;;;;10061177;28;20145;-76
2023/08/17 11:14:08;;;;;;;10.80;9.23;;;;;;;;;;10038069;28;20495;-75
2023/08/17 11:19:00;;;;;;;10.90;8.65;;;;;;;;;;10060396;28;20115;-77
2023/08/17 11:23:55;;;;;;;8.40;7.70;;;;;;;;;;10039352;28;20084;-76
2023/08/17 11:28:47;;;;;;;9.63;8.50;;;;;;;;;;10059611;28;21320;-77
2023/08/17 11:33:39;;;;;;;11.15;8.90;;;;;;;;;;10058875;28;20061;-77
2023/08/17 11:38:36;;;;;;;10.98;9.77;;;;;;;;;;10060424;28;20075;-78
2023/08/17 11:43:28;;;;;;;10.85;9.45;;;;;;;;;;10056392;28;20049;-73
2023/08/17 11:48:20;;;;;;;15.45;9.13;;;;;;;;;;10057754;28;20048;-76
2023/08/17 11:53:12;;;;;;;11.38;8.70;;;;;;;;;;10058715;28;20428;-74
2023/08/17 11:58:04;;;;;;;10.88;8.30;;;;;;;;;;10005255;28;1217631;-75
2023/08/17 12:03:00;;;;;;;13.57;10.40;;;;;;;;;;10082905;28;20044;-76
2023/08/17 12:07:53;;;;;;;8.52;7.82;;;;;;;;;;10083389;28;20128;-76
2023/08/17 12:12:48;;;;;;;9.63;8.70;;;;;;;;;;10078315;28;20041;-76
2023/08/17 12:17:47;;;;;;;8.98;8.07;;;;;;;;;;10104408;28;20072;-77
2023/08/17 12:22:39;;;;;;;9.98;9.02;;;;;;;;;;10099493;28;20133;-75
2023/08/17 12:27:32;;;;;;;10.52;8.75;;;;;;;;;;10103139;28;20076;-77
2023/08/17 12:32:24;;;;;;;12.18;10.80;;;;;;;;;;10104374;28;20065;-77
2023/08/17 12:37:20;;;;;;;14.52;8.45;;;;;;;;;;10101312;28;20093;-76
2023/08/17 12:42:13;;;;;;;13.17;8.73;;;;;;;;;;10082424;28;20523;-76
2023/08/17 12:47:05;;;;;;;11.98;9.65;;;;;;;;;;10101844;28;20123;-75
2023/08/17 12:51:57;;;;;;;9.65;8.10;;;;;;;;;;10082531;28;20347;-75
2023/08/17 12:56:49;;;;;;;11.52;9.25;;;;;;;;;;10100521;28;20048;-77
2023/08/17 13:01:41;;;;;;;9.98;8.90;;;;;;;;;;10101152;28;20406;-77
2023/08/17 13:06:33;;;;;;;15.32;10.13;;;;;;;;;;10102033;28;20048;-75
2023/08/17 13:11:40;;;;;;;16.10;9.32;;;;;;;;;;10101649;28;20071;-76
2023/08/17 13:16:32;;;;;;;9.73;8.95;;;;;;;;;;10100136;28;20198;-77
2023/08/17 13:21:24;;;;;;;9.77;8.65;;;;;;;;;;10100809;28;20376;-77
2023/08/17 13:26:15;;;;;;;12.95;10.80;;;;;;;;;;10101866;28;20045;-77
2023/08/17 13:31:07;;;;;;;10.55;8.27;;;;;;;;;;10101793;28;20052;-78
2023/08/17 13:36:15;;;;;;;10.20;8.65;;;;;;;;;;10090058;28;20053;-77
2023/08/17 13:41:07;;;;;;;9.23;8.38;;;;;;;;;;10084339;28;20049;-77
2023/08/17 13:45:59;;;;;;;11.48;9.52;;;;;;;;;;10100999;28;20137;-78
2023/08/17 13:50:50;;;;;;;11.32;9.75;;;;;;;;;;10100948;28;20364;-74
2023/08/17 13:55:42;;;;;;;9.75;8.82;;;;;;;;;;10100109;28;20056;-76
2023/08/17 14:00:34;;;;;;;9.70;8.13;;;;;;;;;;10099077;28;20418;-77
2023/08/17 14:05:26;;;;;;;9.30;8.50;;;;;;;;;;10101578;28;20122;-77
2023/08/17 14:10:18;;;;;;;9.50;7.32;;;;;;;;;;10101338;28;20111;-76
2023/08/17 14:15:29;;;;;;;8.88;8.15;;;;;;;;;;10095199;28;20803;-76
2023/08/17 14:20:21;;;;;;;10.07;9.02;;;;;;;;;;10100816;28;20041;-75
2023/08/17 14:25:13;;;;;;;9.30;8.52;;;;;;;;;;10100712;28;20037;-77
2023/08/17 14:30:06;;;;;;;8.85;8.05;;;;;;;;;;10098186;28;20045;-76
2023/08/17 14:34:58;;;;;;;8.32;7.53;;;;;;;;;;10100527;28;20087;-77
2023/08/17 14:39:50;;;;;;;8.70;8.00;;;;;;;;;;10100325;28;20052;-76
2023/08/17 14:44:42;;;;;;;14.32;9.35;;;;;;;;;;10100915;28;20380;-76
2023/08/17 14:49:33;;;;;;;9.88;8.75;;;;;;;;;;10084149;28;20047;-76
2023/08/17 14:54:25;;;;;;;10.10;8.85;;;;;;;;;;10103664;28;20106;-81
2023/08/17 14:59:17;;;;;;;12.38;8.50;;;;;;;;;;10104551;28;20084;-80
2023/08/17 15:04:09;;;;;;;10.40;8.18;;;;;;;;;;10101599;28;20524;-82
2023/08/17 15:09:03;;;;;;;9.25;8.23;;;;;;;;;;10104233;28;20057;-81
2023/08/17 15:13:54;;;;;;;9.77;8.00;;;;;;;;;;10103629;28;20037;-81
2023/08/17 15:18:46;;;;;;;9.43;8.52;;;;;;;;;;10104590;28;20154;-78
2023/08/17 15:23:38;;;;;;;12.30;8.20;;;;;;;;;;10097993;28;20037;-81
2023/08/17 15:28:31;;;;;;;13.77;7.30;;;;;;;;;;10083485;28;20045;-80
2023/08/17 15:33:23;;;;;;;8.25;7.45;;;;;;;;;;10102295;28;20438;-81
2023/08/17 15:38:15;;;;;;;13.02;7.97;;;;;;;;;;10101324;28;20053;-80
2023/08/17 15:43:07;;;;;;;7.90;7.18;;;;;;;;;;10102414;28;20463;-80
2023/08/17 15:47:59;;;;;;;10.73;6.75;;;;;;;;;;10080307;28;20485;-81
2023/08/17 15:52:51;;;;;;;7.45;6.57;;;;;;;;;;10091190;28;20135;-79
2023/08/17 15:57:43;;;;;;;12.52;8.20;;;;;;;;;;10099135;28;20071;-79
2023/08/17 16:02:35;;;;;;;10.85;6.55;;;;;;;;;;10101563;28;20041;-80
2023/08/17 16:07:27;;;;;;;8.98;7.00;;;;;;;;;;10099977;28;20099;-78
2023/08/17 16:12:19;;;;;;;9.15;7.90;;;;;;;;;;10100170;28;20041;-80
2023/08/17 16:17:11;;;;;;;13.43;7.85;;;;;;;;;;10099980;28;20048;-80
2023/08/17 16:22:03;;;;;;;9.30;7.20;;;;;;;;;;10087689;28;20049;-79
2023/08/17 16:26:55;;;;;;;11.77;7.97;;;;;;;;;;10105658;28;20098;-79
2023/08/17 16:31:59;;;;;;;8.43;7.63;;;;;;;;;;10106095;28;20044;-80
2023/08/17 16:36:51;;;;;;;9.13;8.43;;;;;;;;;;10104790;28;20055;-81
2023/08/17 16:41:43;;;;;;;11.30;8.05;;;;;;;;;;10105777;28;20045;-80
2023/08/17 16:46:40;;;;;;;10.20;9.30;;;;;;;;;;10106092;28;20154;-80
2023/08/17 16:51:32;;;;;;;12.68;9.18;;;;;;;;;;10104996;28;20041;-78
2023/08/17 16:56:26;;;;;;;10.45;9.45;;;;;;;;;;10105650;28;20081;-81
2023/08/17 17:01:18;;;;;;;9.23;8.20;;;;;;;;;;10104530;28;20363;-80
2023/08/17 17:06:11;;;;;;;9.10;8.30;;;;;;;;;;10105426;28;20154;-80
2023/08/17 17:11:03;;;;;;;12.02;8.05;;;;;;;;;;10104729;28;20041;-79
2023/08/17 17:15:55;;;;;;;10.55;9.05;;;;;;;;;;10104133;28;20485;-80
2023/08/17 17:20:47;;;;;;;10.25;8.43;;;;;;;;;;10086293;28;20486;-78
2023/08/17 17:25:39;;;;;;;9.90;8.55;;;;;;;;;;10086215;28;20040;-78
2023/08/17 17:30:30;;;;;;;9.52;8.73;;;;;;;;;;10103914;28;20463;-79
2023/08/17 17:35:22;;;;;;;9.48;8.68;;;;;;;;;;10104078;28;20048;-79
2023/08/17 17:40:14;;;;;;;9.25;8.20;;;;;;;;;;10103370;28;20048;-79
2023/08/17 17:45:07;;;;;;;11.18;8.70;;;;;;;;;;10103344;28;20095;-79
2023/08/17 17:49:59;;;;;;;9.23;8.43;;;;;;;;;;10103179;28;20045;-79
2023/08/17 17:54:50;;;;;;;9.80;8.48;;;;;;;;;;10103385;28;20490;-78
2023/08/17 17:59:45;;;;;;;9.43;8.40;;;;;;;;;;10102957;28;20057;-79
2023/08/17 18:04:37;;;;;;;9.63;8.43;;;;;;;;;;10103963;28;20048;-78
2023/08/17 18:09:29;;;;;;;14.88;8.80;;;;;;;;;;10103638;28;20045;-79
2023/08/17 18:14:21;;;;;;;10.93;9.93;;;;;;;;;;10103532;28;20037;-81
2023/08/17 18:19:13;;;;;;;12.57;9.27;;;;;;;;;;10103174;28;20073;-78
2023/08/17 18:24:06;;;;;;;17.33;15.55;;;;;;;;;;10103260;28;20045;-80
2023/08/17 18:28:58;;;;;;;17.17;13.23;;;;;;;;;;10110674;28;20053;-81
2023/08/17 18:33:50;;;;;;;11.38;10.38;;;;;;;;;;10110212;28;20068;-80
2023/08/17 18:38:42;;;;;;;10.63;9.07;;;;;;;;;;10110878;28;20052;-80
2023/08/17 18:43:36;;;;;;;9.85;9.05;;;;;;;;;;10110180;28;20552;-80
2023/08/17 18:48:28;;;;;;;11.32;10.10;;;;;;;;;;10110416;28;20417;-79
2023/08/17 18:53:20;;;;;;;9.82;8.38;;;;;;;;;;10109886;28;20073;-80
2023/08/17 18:58:12;;;;;;;8.70;7.80;;;;;;;;;;10109328;28;20100;-80
2023/08/17 19:03:04;;;;;;;8.45;7.65;;;;;;;;;;10109689;28;20049;-78
2023/08/17 19:07:57;;;;;;;8.63;7.80;;;;;;;;;;10109799;28;20077;-80
2023/08/17 19:12:49;;;;;;;7.70;6.97;;;;;;;;;;10109221;28;20052;-78
2023/08/17 19:17:41;;;;;;;9.52;8.57;;;;;;;;;;10109284;28;20404;-79
2023/08/17 19:22:33;;;;;;;11.95;8.05;;;;;;;;;;10108805;28;20482;-77
2023/08/17 19:27:25;;;;;;;9.05;8.25;;;;;;;;;;10108968;28;20071;-79
2023/08/17 19:32:17;;;;;;;10.02;8.85;;;;;;;;;;10108374;28;20041;-78
2023/08/17 19:37:09;;;;;;;9.65;8.20;;;;;;;;;;10108299;28;20055;-78
2023/08/17 19:42:02;;;;;;;8.85;7.95;;;;;;;;;;10107729;28;20041;-79
2023/08/17 19:46:55;;;;;;;10.02;7.45;;;;;;;;;;10108312;28;20199;-79
2023/08/17 19:51:46;;;;;;;8.60;7.13;;;;;;;;;;10107924;28;20079;-78
2023/08/17 19:56:40;;;;;;;9.30;8.32;;;;;;;;;;10107198;28;20045;-78
2023/08/17 20:01:36;;;;;;;10.02;7.80;;;;;;;;;;10107372;28;20056;-78
2023/08/17 20:06:29;;;;;;;12.57;8.02;;;;;;;;;;10107581;28;20114;-78
2023/08/17 20:11:21;;;;;;;9.07;8.07;;;;;;;;;;10092637;28;20041;-79
2023/08/17 20:16:13;;;;;;;13.30;8.88;;;;;;;;;;10088146;28;20462;-79
2023/08/17 20:21:06;;;;;;;8.98;6.75;;;;;;;;;;10079438;28;20386;-79
2023/08/17 20:25:58;;;;;;;7.55;6.32;;;;;;;;;;10077856;28;20041;-79
2023/08/17 20:30:58;;;;;;;6.85;5.75;;;;;;;;;;10105324;28;20123;-80
2023/08/17 20:35:51;;;;;;;9.23;7.20;;;;;;;;;;10104656;28;20072;-82
2023/08/17 20:40:43;;;;;;;7.50;5.97;;;;;;;;;;10093898;28;20053;-79
2023/08/17 20:45:37;;;;;;;9.68;5.93;;;;;;;;;;10104576;28;20044;-80
2023/08/17 20:50:29;;;;;;;7.43;5.38;;;;;;;;;;10106819;28;20140;-79
2023/08/17 20:55:22;;;;;;;8.88;5.57;;;;;;;;;;10097797;28;20055;-80
2023/08/17 21:00:14;;;;;;;8.02;5.65;;;;;;;;;;10080543;28;20565;-80
2023/08/17 21:05:07;;;;;;;6.28;5.32;;;;;;;;;;10076925;28;20132;-79
2023/08/17 21:09:59;;;;;;;11.13;6.65;;;;;;;;;;10087955;28;20044;-80
2023/08/17 21:14:50;;;;;;;10.80;6.25;;;;;;;;;;10099880;28;20060;-79
2023/08/17 21:19:43;;;;;;;7.10;4.93;;;;;;;;;;10087359;28;20126;-76
2023/08/17 21:24:35;;;;;;;8.85;5.72;;;;;;;;;;10096197;28;20044;-80
2023/08/17 21:29:27;;;;;;;10.25;5.30;;;;;;;;;;10096938;28;20132;-79
2023/08/17 21:34:19;;;;;;;5.40;4.88;;;;;;;;;;10099288;28;20044;-78
2023/08/17 21:39:12;;;;;;;9.57;5.72;;;;;;;;;;10081042;28;20390;-78
2023/08/17 21:44:05;;;;;;;9.60;6.13;;;;;;;;;;10096759;28;20052;-78
2023/08/17 21:48:57;;;;;;;8.18;5.85;;;;;;;;;;10091216;28;20049;-77
2023/08/17 21:53:49;;;;;;;6.40;5.50;;;;;;;;;;10098165;28;20387;-78
2023/08/17 21:58:41;;;;;;;12.82;7.45;;;;;;;;;;10096932;28;20072;-78
2023/08/17 22:03:33;;;;;;;6.38;5.25;;;;;;;;;;10104669;28;20044;-78
2023/08/17 22:08:25;;;;;;;6.72;4.80;;;;;;;;;;10103877;28;20135;-77
2023/08/17 22:13:17;;;;;;;9.35;5.45;;;;;;;;;;10108981;28;20091;-77
2023/08/17 22:18:09;;;;;;;9.00;4.90;;;;;;;;;;10111855;28;20049;-78
2023/08/17 22:23:01;;;;;;;9.55;5.47;;;;;;;;;;10106126;28;20045;-78
2023/08/17 22:27:53;;;;;;;7.68;5.40;;;;;;;;;;10082376;28;20098;-77
2023/08/17 22:32:45;;;;;;;7.75;4.65;;;;;;;;;;10116819;28;20044;-78
2023/08/17 22:37:37;;;;;;;8.80;4.13;;;;;;;;;;10106062;28;20049;-77
2023/08/17 22:42:29;;;;;;;8.75;4.28;;;;;;;;;;10108102;28;20098;-77
2023/08/17 22:47:21;;;;;;;7.10;4.40;;;;;;;;;;10108095;28;20900;-78
2023/08/17 22:52:13;;;;;;;4.78;3.95;;;;;;;;;;10089516;28;20075;-78
2023/08/17 22:57:05;;;;;;;9.93;4.93;;;;;;;;;;10094314;28;20041;-77
2023/08/17 23:01:57;;;;;;;5.28;4.85;;;;;;;;;;10092459;28;20459;-78
2023/08/17 23:06:49;;;;;;;6.22;5.10;;;;;;;;;;10088452;28;20588;-77
2023/08/17 23:11:41;;;;;;;10.38;6.00;;;;;;;;;;10071955;28;20069;-77
2023/08/17 23:16:33;;;;;;;7.97;4.55;;;;;;;;;;10083792;28;20123;-76
2023/08/17 23:21:25;;;;;;;8.10;4.78;;;;;;;;;;10106710;28;20118;-77
2023/08/17 23:26:17;;;;;;;6.95;4.55;;;;;;;;;;10106827;28;20075;-78
2023/08/17 23:31:09;;;;;;;11.68;4.50;;;;;;;;;;10092280;28;20079;-78
2023/08/17 23:36:01;;;;;;;9.55;4.35;;;;;;;;;;10103747;28;20041;-78
2023/08/17 23:40:53;;;;;;;10.52;4.68;;;;;;;;;;10094304;28;20068;-78
2023/08/17 23:45:45;;;;;;;5.15;4.60;;;;;;;;;;10105565;28;20053;-77
2023/08/17 23:50:37;;;;;;;8.10;5.22;;;;;;;;;;10105452;28;20360;-76
2023/08/17 23:55:29;;;;;;;7.00;4.05;;;;;;;;;;10105482;28;20049;-78
